Aérodrome :
LOGIN :

S'inscrire | Disclaimer

   EN    FR    IT 

 










Légende :    VFR   VFR Marginal   IFR   IFR Intensif   IFR Très Intensif
Visi : 
Plafond : 
>= 8 km
>= 3000ft
5 à 8 km
1000 à 3000 ft
1500m à 5 km
500 à 1000 ft
800 à 1500m
200 à 500 ft
< 800m
< 200 ft
Symboles :   Orages  Brouillard  Fortes neiges  Fortes précipitations  Vent > 20 kt
SIGMETs :   Divers  Orages  Givrage  Turbulence  Onde Orograph.  Cendres Volcan.







- Altitude de l'aérodrome : 616 ft
- Code IATA : PUF
- Voir les cartes d'approche


LFBP - Pau

DERNIER METAR :
  • 260530Z AUTO 34011KT 320V100 9999 -RA BKN006 BKN016 OVC023 06/05 Q1011 BECMG SCT010 BKN025 BKN060

METARs EXPIRÉS :
  • 260500Z AUTO 34013KT 320V020 5000 -RA BR OVC004 06/05 Q1011 TEMPO RA BKN005 OVC020
  • 260430Z AUTO 34009KT 270V070 7000 BKN003 BKN008 OVC014 07/06 Q1010 TEMPO 4000 RA BKN005 OVC020
  • 260400Z AUTO VRB05KT 9999 BKN007 OVC012 08/07 Q1009 TEMPO 4000 RA VV///
  • 260330Z AUTO VRB10KT 9000 OVC004 08/07 Q1009 TEMPO 4000 RA VV///
  • 260300Z AUTO VRB08KT 4500 BR VV/// 08/08 Q1009 TEMPO RA BKN005 OVC020

TAF TAF LFBP
Valide du 26 à 06h jusqu'au 27 à 06h UTC


260500Z 2606/2706 36006KT 9999 SCT010 BKN025 BKN060
BECMG 2609/2612 BKN040
PROB40
TEMPO 2614/2618 30010G20KT 4000 SHRA BKN030TCU
BECMG 2618/2620 VRB02KT
Pas de NOTAMs connus pour ce terrain.



MET'MAP, la Météo Aéronautique d'un coup d'oeil ! - Copyright ORBIFLY Décembre 2007 - Disclaimer

ORBIFLY MET'MAP TEAM :

Programmation & Développement : Alexandra Zaïnal
Conception & Développement : Baudouin d'Aumeries
Co-Programmation & Développement : Marc-Olivier Méhu
Soutien technique & logistique : Manuel Goepfert

Contact : metmap@orbifly.com




SOURCES & CREDITS :

   NOAA